Time;durP1;ratioP1;P1;durP2;ratioP2;P2;SDS_P1;SDS_P2;PMS_P1;PMS_P2;Temp;Humidity;BMP_temperature;BMP_pressure;BME280_temperature;BME280_humidity;BME280_pressure;Samples;Min_cycle;Max_cycle;Signal;HPM_P1;HPM_P2
2023/02/12 00:01:07;;;;;;;;;;;6.60;99.90;;;;;;4997858;28;19983;-78
2023/02/12 00:03:34;;;;;;;;;;;6.50;99.90;;;;;;5001468;28;20017;-79
2023/02/12 00:06:01;;;;;;;;;;;6.60;99.90;;;;;;5012890;28;19932;-79
2023/02/12 00:08:27;;;;;;;;;;;6.60;99.90;;;;;;4981929;28;20399;-79
2023/02/12 00:10:54;;;;;;;;;;;6.60;99.90;;;;;;5006815;28;19925;-79
2023/02/12 00:13:21;;;;;;;;;;;6.60;99.90;;;;;;5004631;28;19996;-79
2023/02/12 00:15:47;;;;;;;;;;;6.60;99.90;;;;;;5009813;28;19936;-79
2023/02/12 00:18:14;;;;;;;;;;;6.60;99.90;;;;;;5016067;28;19926;-78
2023/02/12 00:20:40;;;;;;;;;;;6.70;99.90;;;;;;5014416;28;20036;-78
2023/02/12 00:23:07;;;;;;;;;;;6.70;99.90;;;;;;5002534;28;20313;-78
2023/02/12 00:25:34;;;;;;;;;;;6.70;99.90;;;;;;5013237;28;20069;-79
2023/02/12 00:28:00;;;;;;;;;;;6.60;99.90;;;;;;5008791;28;19926;-79
2023/02/12 00:30:28;;;;;;;;;;;6.70;99.90;;;;;;5011948;28;19926;-78
2023/02/12 00:32:54;;;;;;;;;;;6.60;99.90;;;;;;5015781;28;19926;-78
2023/02/12 00:35:21;;;;;;;;;;;6.70;99.90;;;;;;4996173;28;19930;-78
2023/02/12 00:37:49;;;;;;;;;;;6.70;99.90;;;;;;5014185;28;20029;-79
2023/02/12 00:40:15;;;;;;;;;;;6.60;99.90;;;;;;5005503;28;19968;-78
2023/02/12 00:42:42;;;;;;;;;;;6.60;99.90;;;;;;5013237;28;19926;-78
2023/02/12 00:45:09;;;;;;;;;;;6.70;99.90;;;;;;5007340;28;20020;-78
2023/02/12 00:47:35;;;;;;;;;;;6.70;99.90;;;;;;4981895;28;19926;-78
2023/02/12 00:50:02;;;;;;;;;;;6.70;99.90;;;;;;5013131;28;19936;-78
2023/02/12 00:52:28;;;;;;;;;;;6.70;99.90;;;;;;5017074;28;20521;-79
2023/02/12 00:54:55;;;;;;;;;;;6.60;99.90;;;;;;5014298;28;19934;-79
2023/02/12 00:57:22;;;;;;;;;;;6.70;99.90;;;;;;4996037;28;19960;-78
2023/02/12 00:59:48;;;;;;;;;;;6.60;99.90;;;;;;4996774;28;19979;-78
2023/02/12 01:02:16;;;;;;;;;;;6.70;99.90;;;;;;4995634;28;19926;-78
2023/02/12 01:04:44;;;;;;;;;;;6.70;99.90;;;;;;4993300;28;19926;-77
2023/02/12 01:07:11;;;;;;;;;;;6.60;99.90;;;;;;5013838;28;19925;-78
2023/02/12 01:09:37;;;;;;;;;;;6.60;99.90;;;;;;5008270;28;20119;-77
2023/02/12 01:12:05;;;;;;;;;;;6.70;99.90;;;;;;4997463;28;20444;-77
2023/02/12 01:14:32;;;;;;;;;;;6.70;99.90;;;;;;5009064;28;20434;-77
2023/02/12 01:16:58;;;;;;;;;;;6.70;99.90;;;;;;4998420;28;19941;-78
2023/02/12 01:19:26;;;;;;;;;;;6.60;99.90;;;;;;5013684;28;20034;-78
2023/02/12 01:21:53;;;;;;;;;;;6.70;99.90;;;;;;5008823;28;19939;-78
2023/02/12 01:24:20;;;;;;;;;;;6.70;99.90;;;;;;5012514;28;20064;-77
2023/02/12 01:26:46;;;;;;;;;;;6.70;99.90;;;;;;5005112;28;20527;-78
2023/02/12 01:29:13;;;;;;;;;;;6.70;99.90;;;;;;5013488;28;20182;-78
2023/02/12 01:31:41;;;;;;;;;;;6.70;99.90;;;;;;5006836;28;20016;-78
2023/02/12 01:34:09;;;;;;;;;;;6.70;99.90;;;;;;4996792;28;19925;-78
2023/02/12 01:36:37;;;;;;;;;;;6.70;99.90;;;;;;5012398;28;20024;-78
2023/02/12 01:39:04;;;;;;;;;;;6.70;99.90;;;;;;5015829;28;19953;-78
2023/02/12 01:41:32;;;;;;;;;;;6.70;99.90;;;;;;5012189;28;20151;-78
2023/02/12 01:44:18;;;;;;;;;;;6.70;99.90;;;;;;4996200;28;20169;-77
2023/02/12 01:46:45;;;;;;;;;;;6.70;99.90;;;;;;4994773;28;20032;-78
2023/02/12 01:49:34;;;;;;;;;;;6.70;99.90;;;;;;5012215;28;19965;-78
2023/02/12 01:52:06;;;;;;;;;;;6.70;99.90;;;;;;4993314;28;20017;-78
2023/02/12 01:54:34;;;;;;;;;;;6.70;99.90;;;;;;4994574;28;20314;-78
2023/02/12 01:57:02;;;;;;;;;;;6.60;99.90;;;;;;5006007;28;20024;-78
2023/02/12 01:59:29;;;;;;;;;;;6.60;99.90;;;;;;4996873;28;20024;-78
2023/02/12 02:01:56;;;;;;;;;;;6.60;99.90;;;;;;5007785;28;19941;-78
2023/02/12 02:04:26;;;;;;;;;;;6.60;99.90;;;;;;4989516;28;19971;-78
2023/02/12 02:06:56;;;;;;;;;;;6.70;99.90;;;;;;5008714;28;20438;-78
2023/02/12 02:09:23;;;;;;;;;;;6.70;99.90;;;;;;5011234;28;19935;-78
2023/02/12 02:14:37;;;;;;;;;;;6.70;99.90;;;;;;5004469;28;19957;-78
2023/02/12 02:17:23;;;;;;;;;;;6.60;99.90;;;;;;5011482;28;19926;-78
2023/02/12 02:20:00;;;;;;;;;;;6.60;99.90;;;;;;5011123;28;19926;-78
2023/02/12 02:22:30;;;;;;;;;;;6.70;99.90;;;;;;4977977;28;19988;-78
2023/02/12 02:25:03;;;;;;;;;;;6.70;99.90;;;;;;4996108;28;19935;-78
2023/02/12 02:27:30;;;;;;;;;;;6.70;99.90;;;;;;4994754;28;19972;-78
2023/02/12 02:30:09;;;;;;;;;;;6.60;99.90;;;;;;5007794;28;20465;-78
2023/02/12 02:32:40;;;;;;;;;;;6.60;99.90;;;;;;4998057;28;19925;-78
2023/02/12 02:35:10;;;;;;;;;;;6.70;99.90;;;;;;5005817;28;19948;-78
2023/02/12 02:37:55;;;;;;;;;;;6.70;99.90;;;;;;4991936;28;20016;-78
2023/02/12 02:40:28;;;;;;;;;;;6.70;99.90;;;;;;4995049;28;20453;-78
2023/02/12 02:42:59;;;;;;;;;;;6.70;99.90;;;;;;4994453;28;20569;-78
2023/02/12 02:45:28;;;;;;;;;;;6.70;99.90;;;;;;4994889;28;19938;-78
2023/02/12 02:47:58;;;;;;;;;;;6.70;99.90;;;;;;5005704;28;19926;-78
2023/02/12 02:50:26;;;;;;;;;;;6.70;99.90;;;;;;5006125;28;19940;-78
2023/02/12 02:53:00;;;;;;;;;;;6.70;99.90;;;;;;5004657;28;19930;-78
2023/02/12 02:55:29;;;;;;;;;;;6.70;99.90;;;;;;4993633;28;19930;-78
2023/02/12 02:57:58;;;;;;;;;;;6.70;99.90;;;;;;5012517;28;19949;-78
2023/02/12 03:00:26;;;;;;;;;;;6.70;99.90;;;;;;5011372;28;19925;-78
2023/02/12 03:03:03;;;;;;;;;;;6.70;99.90;;;;;;5011978;28;19976;-78
2023/02/12 03:05:36;;;;;;;;;;;6.70;99.90;;;;;;4993541;28;19976;-79
2023/02/12 03:08:33;;;;;;;;;;;6.60;99.90;;;;;;4997200;28;19933;-79
2023/02/12 03:11:06;;;;;;;;;;;6.70;99.90;;;;;;4992989;28;19969;-78
2023/02/12 03:13:36;;;;;;;;;;;6.70;99.90;;;;;;4996711;28;19929;-78
2023/02/12 03:16:05;;;;;;;;;;;6.60;99.90;;;;;;5003227;28;20048;-78
2023/02/12 03:18:35;;;;;;;;;;;6.60;99.90;;;;;;5004593;28;20276;-78
2023/02/12 03:21:07;;;;;;;;;;;6.60;99.90;;;;;;4996182;28;20438;-78
2023/02/12 03:23:37;;;;;;;;;;;6.60;99.90;;;;;;4994588;28;20338;-78
2023/02/12 03:26:07;;;;;;;;;;;6.60;99.90;;;;;;4994723;28;19929;-77
2023/02/12 03:28:35;;;;;;;;;;;6.60;99.90;;;;;;4995783;28;20346;-79
2023/02/12 03:31:13;;;;;;;;;;;6.60;99.90;;;;;;5005448;28;20375;-78
2023/02/12 03:33:43;;;;;;;;;;;6.70;99.90;;;;;;5008918;28;19933;-79
2023/02/12 03:36:20;;;;;;;;;;;6.70;99.90;;;;;;5010516;28;19930;-78
2023/02/12 03:38:49;;;;;;;;;;;6.70;99.90;;;;;;4992148;28;20632;-78
2023/02/12 03:41:19;;;;;;;;;;;6.70;99.90;;;;;;4994596;28;19932;-79
2023/02/12 03:43:49;;;;;;;;;;;6.80;99.90;;;;;;4978131;28;19934;-78
2023/02/12 03:46:21;;;;;;;;;;;6.80;99.90;;;;;;4978549;28;19925;-78
2023/02/12 03:48:54;;;;;;;;;;;6.80;99.90;;;;;;5005755;28;19940;-79
2023/02/12 03:51:37;;;;;;;;;;;6.80;99.90;;;;;;4977393;28;20397;-78
2023/02/12 03:54:05;;;;;;;;;;;6.80;99.90;;;;;;4991665;28;20024;-78
2023/02/12 03:56:50;;;;;;;;;;;6.70;99.90;;;;;;5011358;28;19925;-78
2023/02/12 03:59:18;;;;;;;;;;;6.70;99.90;;;;;;4994896;28;19925;-79
2023/02/12 04:01:46;;;;;;;;;;;6.70;99.90;;;;;;5007418;28;20410;-78
2023/02/12 04:04:13;;;;;;;;;;;6.70;99.90;;;;;;5010420;28;20040;-79
2023/02/12 04:06:40;;;;;;;;;;;6.70;99.90;;;;;;5010524;28;19930;-78
2023/02/12 04:09:08;;;;;;;;;;;6.70;99.90;;;;;;5014021;28;19926;-77
2023/02/12 04:11:38;;;;;;;;;;;6.70;99.90;;;;;;4994066;28;20086;-79
2023/02/12 04:14:05;;;;;;;;;;;6.70;99.90;;;;;;5009183;28;20116;-79
2023/02/12 04:16:34;;;;;;;;;;;6.70;99.90;;;;;;5008253;28;20009;-79
2023/02/12 04:19:04;;;;;;;;;;;6.70;99.90;;;;;;5012175;28;19933;-78
2023/02/12 04:21:42;;;;;;;;;;;6.70;99.90;;;;;;4992693;28;20682;-78
2023/02/12 04:24:27;;;;;;;;;;;6.70;99.90;;;;;;4993519;28;20559;-78
2023/02/12 04:26:56;;;;;;;;;;;6.80;99.90;;;;;;5010656;28;20134;-78
2023/02/12 04:29:23;;;;;;;;;;;6.70;99.90;;;;;;4996687;28;19931;-78
2023/02/12 04:32:00;;;;;;;;;;;6.70;99.90;;;;;;4998281;28;19936;-78
2023/02/12 04:34:48;;;;;;;;;;;6.70;99.90;;;;;;5000968;28;20342;-79
2023/02/12 04:37:16;;;;;;;;;;;6.80;99.90;;;;;;4997736;28;19926;-78
2023/02/12 04:39:44;;;;;;;;;;;6.80;99.90;;;;;;5011506;28;19936;-79
2023/02/12 04:42:10;;;;;;;;;;;6.80;99.90;;;;;;5018291;28;20444;-78
2023/02/12 04:44:39;;;;;;;;;;;6.80;99.90;;;;;;5013630;28;19961;-78
2023/02/12 04:47:06;;;;;;;;;;;6.80;99.90;;;;;;4998463;28;19936;-79
2023/02/12 04:49:33;;;;;;;;;;;6.70;99.90;;;;;;5000015;28;19934;-78
2023/02/12 04:51:59;;;;;;;;;;;6.80;99.90;;;;;;5008823;28;19925;-78
2023/02/12 04:54:26;;;;;;;;;;;6.70;99.90;;;;;;4999317;28;19965;-78
2023/02/12 04:56:53;;;;;;;;;;;6.70;99.90;;;;;;5012351;28;19925;-79
2023/02/12 04:59:19;;;;;;;;;;;6.60;99.90;;;;;;5010380;28;20459;-78
2023/02/12 05:01:46;;;;;;;;;;;6.70;99.90;;;;;;5005250;28;20178;-78
2023/02/12 05:04:14;;;;;;;;;;;6.70;99.90;;;;;;5016980;28;20617;-79
2023/02/12 05:06:41;;;;;;;;;;;6.60;99.90;;;;;;5003325;28;19926;-78
2023/02/12 05:09:09;;;;;;;;;;;6.70;99.90;;;;;;5017695;28;20390;-78
2023/02/12 05:11:35;;;;;;;;;;;6.60;99.90;;;;;;5010690;28;19930;-78
2023/02/12 05:14:02;;;;;;;;;;;6.60;99.90;;;;;;5013273;28;19935;-78
2023/02/12 05:16:29;;;;;;;;;;;6.70;99.90;;;;;;4994218;28;19925;-78
2023/02/12 05:18:55;;;;;;;;;;;6.70;99.90;;;;;;4997868;28;19930;-77
2023/02/12 05:21:22;;;;;;;;;;;6.60;99.90;;;;;;5012033;28;20120;-78
2023/02/12 05:23:48;;;;;;;;;;;6.60;99.90;;;;;;5009967;28;19932;-79
2023/02/12 05:26:17;;;;;;;;;;;6.60;99.90;;;;;;4989527;28;19926;-79
2023/02/12 05:28:43;;;;;;;;;;;6.70;99.90;;;;;;4991669;28;19968;-78
2023/02/12 05:31:12;;;;;;;;;;;6.70;99.90;;;;;;5013231;28;19936;-79
2023/02/12 05:33:43;;;;;;;;;;;6.70;99.90;;;;;;5012608;28;19925;-79
2023/02/12 05:36:11;;;;;;;;;;;6.70;99.90;;;;;;5012266;28;19925;-78
2023/02/12 05:38:37;;;;;;;;;;;6.80;99.90;;;;;;5010920;28;19926;-80
2023/02/12 05:41:11;;;;;;;;;;;6.80;99.90;;;;;;5010489;28;20389;-80
2023/02/12 05:43:38;;;;;;;;;;;6.80;99.90;;;;;;4997860;28;19984;-80
2023/02/12 05:46:05;;;;;;;;;;;6.60;99.90;;;;;;5009392;28;20443;-79
2023/02/12 05:48:33;;;;;;;;;;;6.70;99.90;;;;;;4998533;28;20059;-78
2023/02/12 05:51:03;;;;;;;;;;;6.70;99.90;;;;;;4996725;28;20409;-79
2023/02/12 05:53:30;;;;;;;;;;;6.60;99.90;;;;;;5013833;28;19929;-79
2023/02/12 05:56:13;;;;;;;;;;;6.60;99.90;;;;;;5004211;28;20009;-78
2023/02/12 05:58:41;;;;;;;;;;;6.60;99.90;;;;;;5000383;28;19956;-78
2023/02/12 06:01:12;;;;;;;;;;;6.60;99.90;;;;;;5005868;28;19953;-78
2023/02/12 06:03:38;;;;;;;;;;;6.60;99.90;;;;;;5014706;28;20654;-79
2023/02/12 06:06:05;;;;;;;;;;;6.50;99.90;;;;;;5010920;28;20419;-78
2023/02/12 06:08:32;;;;;;;;;;;6.50;99.90;;;;;;5010636;28;19934;-78
2023/02/12 06:11:03;;;;;;;;;;;6.50;99.90;;;;;;5010404;28;19975;-79
2023/02/12 06:13:30;;;;;;;;;;;6.50;99.90;;;;;;4995492;28;19929;-79
2023/02/12 06:15:57;;;;;;;;;;;6.60;99.90;;;;;;5010310;28;20513;-78
2023/02/12 06:18:25;;;;;;;;;;;6.50;99.90;;;;;;5012128;28;19931;-78
2023/02/12 06:20:55;;;;;;;;;;;6.50;99.90;;;;;;5006765;28;20016;-79
2023/02/12 06:23:22;;;;;;;;;;;6.50;99.90;;;;;;5011001;28;20501;-79
2023/02/12 06:25:50;;;;;;;;;;;6.40;99.90;;;;;;4999795;28;19949;-78
2023/02/12 06:28:16;;;;;;;;;;;6.50;99.90;;;;;;4994677;28;19925;-78
2023/02/12 06:30:43;;;;;;;;;;;6.40;99.90;;;;;;4995077;28;19963;-78
2023/02/12 06:33:10;;;;;;;;;;;6.40;99.90;;;;;;5003913;28;19932;-79
2023/02/12 06:35:37;;;;;;;;;;;6.40;99.90;;;;;;5008206;28;19997;-79
2023/02/12 06:38:04;;;;;;;;;;;6.40;99.90;;;;;;5009321;28;19940;-80
2023/02/12 06:40:31;;;;;;;;;;;6.40;99.90;;;;;;5007296;28;19929;-79
2023/02/12 06:42:58;;;;;;;;;;;6.40;99.90;;;;;;4992804;28;20291;-80
2023/02/12 06:45:24;;;;;;;;;;;6.50;99.90;;;;;;5007213;28;19940;-79
2023/02/12 06:47:51;;;;;;;;;;;6.40;99.90;;;;;;5002115;28;20433;-79
2023/02/12 06:50:17;;;;;;;;;;;6.40;99.90;;;;;;5008070;28;19930;-78
2023/02/12 06:52:44;;;;;;;;;;;6.40;99.90;;;;;;4990032;28;20148;-80
2023/02/12 06:55:11;;;;;;;;;;;6.30;99.90;;;;;;4998201;28;19929;-80
2023/02/12 06:57:37;;;;;;;;;;;6.40;99.90;;;;;;4994402;28;19930;-80
2023/02/12 07:00:04;;;;;;;;;;;6.40;99.90;;;;;;5002751;28;20370;-80
2023/02/12 07:02:31;;;;;;;;;;;6.40;99.90;;;;;;5011347;28;20236;-79
2023/02/12 07:04:57;;;;;;;;;;;6.40;99.90;;;;;;4991965;28;21229;-79
2023/02/12 07:07:24;;;;;;;;;;;6.40;99.90;;;;;;5001145;28;20623;-78
2023/02/12 07:09:50;;;;;;;;;;;6.40;99.90;;;;;;5004225;28;19944;-78
2023/02/12 07:12:17;;;;;;;;;;;6.40;99.90;;;;;;4993648;28;20020;-78
2023/02/12 07:14:44;;;;;;;;;;;6.40;99.90;;;;;;5005568;28;19941;-78
2023/02/12 07:17:10;;;;;;;;;;;6.40;99.90;;;;;;4989961;28;20554;-78
2023/02/12 07:19:37;;;;;;;;;;;6.40;99.90;;;;;;5013609;28;20480;-78
2023/02/12 07:22:03;;;;;;;;;;;6.40;99.90;;;;;;4978317;28;20146;-78
2023/02/12 07:24:30;;;;;;;;;;;6.50;99.90;;;;;;5010115;28;19925;-79
2023/02/12 07:26:56;;;;;;;;;;;6.40;99.90;;;;;;5007826;28;19926;-78
2023/02/12 07:29:23;;;;;;;;;;;6.40;99.90;;;;;;4995255;28;20201;-78
2023/02/12 07:31:50;;;;;;;;;;;6.40;99.90;;;;;;5005202;28;20017;-78
2023/02/12 07:34:17;;;;;;;;;;;6.40;99.90;;;;;;5011579;28;19932;-78
2023/02/12 07:36:43;;;;;;;;;;;6.50;99.90;;;;;;5002608;28;19925;-78
2023/02/12 07:39:11;;;;;;;;;;;6.50;99.90;;;;;;5011951;28;19952;-78
2023/02/12 07:41:40;;;;;;;;;;;6.60;99.90;;;;;;4991497;28;19930;-78
2023/02/12 07:44:08;;;;;;;;;;;6.60;99.90;;;;;;4982423;28;20370;-78
2023/02/12 07:46:40;;;;;;;;;;;6.60;99.90;;;;;;4994259;28;19925;-79
2023/02/12 07:49:09;;;;;;;;;;;6.60;99.90;;;;;;5011038;28;19983;-78
2023/02/12 07:51:36;;;;;;;;;;;6.50;99.90;;;;;;5012962;28;20033;-78
2023/02/12 07:54:03;;;;;;;;;;;6.50;99.90;;;;;;4994048;28;19981;-78
2023/02/12 07:56:32;;;;;;;;;;;6.50;99.90;;;;;;4997920;28;20319;-78
2023/02/12 07:58:59;;;;;;;;;;;6.50;99.90;;;;;;5011866;28;19975;-79
2023/02/12 08:01:29;;;;;;;;;;;6.50;99.90;;;;;;5011156;28;19985;-78
2023/02/12 08:04:00;;;;;;;;;;;6.60;99.90;;;;;;5015747;28;19926;-78
2023/02/12 08:06:28;;;;;;;;;;;6.50;99.90;;;;;;5013790;28;19940;-79
2023/02/12 08:08:56;;;;;;;;;;;6.60;99.90;;;;;;5012380;28;20395;-78
2023/02/12 08:11:23;;;;;;;;;;;6.60;99.90;;;;;;5014481;28;20008;-78
2023/02/12 08:13:50;;;;;;;;;;;6.60;99.90;;;;;;5010034;28;20020;-78
2023/02/12 08:16:18;;;;;;;;;;;6.60;99.90;;;;;;4998714;28;20228;-80
2023/02/12 08:18:45;;;;;;;;;;;6.60;99.90;;;;;;5004969;28;19929;-79
2023/02/12 08:21:19;;;;;;;;;;;6.50;99.90;;;;;;4997040;28;19932;-79
2023/02/12 08:23:49;;;;;;;;;;;6.60;99.90;;;;;;4999521;28;19925;-79
2023/02/12 08:26:17;;;;;;;;;;;6.60;99.90;;;;;;4997389;28;20583;-79
2023/02/12 08:28:48;;;;;;;;;;;6.60;99.90;;;;;;5021420;28;20007;-78
2023/02/12 08:31:19;;;;;;;;;;;6.60;99.90;;;;;;5011497;28;19936;-79
2023/02/12 08:33:47;;;;;;;;;;;6.60;99.90;;;;;;5017447;28;20422;-80
2023/02/12 08:36:14;;;;;;;;;;;6.60;99.90;;;;;;5014046;28;19925;-79
2023/02/12 08:38:42;;;;;;;;;;;6.60;99.90;;;;;;5017395;28;20629;-79
2023/02/12 08:41:13;;;;;;;;;;;6.60;99.90;;;;;;5016208;28;19961;-79
2023/02/12 08:43:40;;;;;;;;;;;6.50;99.90;;;;;;5004167;28;19925;-79
2023/02/12 08:46:09;;;;;;;;;;;6.60;99.90;;;;;;4999571;28;21263;-79
2023/02/12 08:48:36;;;;;;;;;;;6.60;99.90;;;;;;5002277;28;20048;-80
2023/02/12 08:51:07;;;;;;;;;;;6.60;99.90;;;;;;5009190;28;19925;-79
2023/02/12 08:53:34;;;;;;;;;;;6.60;99.90;;;;;;5012229;28;19944;-79
2023/02/12 08:56:00;;;;;;;;;;;6.60;99.90;;;;;;5015984;28;20414;-78
2023/02/12 08:58:27;;;;;;;;;;;6.60;99.90;;;;;;5000594;28;20896;-79
2023/02/12 09:00:54;;;;;;;;;;;6.60;99.90;;;;;;4997457;28;20300;-79
2023/02/12 09:03:20;;;;;;;;;;;6.60;99.90;;;;;;5017550;28;19929;-79
2023/02/12 09:05:47;;;;;;;;;;;6.60;99.90;;;;;;4998579;28;20556;-78
2023/02/12 09:08:14;;;;;;;;;;;6.60;99.90;;;;;;5014100;28;19999;-78
2023/02/12 09:10:41;;;;;;;;;;;6.70;99.90;;;;;;5004036;28;20010;-79
2023/02/12 09:13:09;;;;;;;;;;;6.60;99.90;;;;;;4998066;28;19968;-79
2023/02/12 09:15:37;;;;;;;;;;;6.60;99.90;;;;;;5000999;28;19937;-79
2023/02/12 09:18:03;;;;;;;;;;;6.60;99.90;;;;;;5019091;28;20428;-79
2023/02/12 09:20:31;;;;;;;;;;;6.60;99.90;;;;;;5019870;28;19941;-80
2023/02/12 09:23:00;;;;;;;;;;;6.70;99.90;;;;;;5013064;28;19932;-78
2023/02/12 09:25:27;;;;;;;;;;;6.70;99.90;;;;;;5007448;28;19926;-79
2023/02/12 09:27:54;;;;;;;;;;;6.70;99.90;;;;;;5013158;28;19933;-79
2023/02/12 09:30:21;;;;;;;;;;;6.70;99.90;;;;;;4996102;28;19935;-79
2023/02/12 09:32:48;;;;;;;;;;;6.80;99.90;;;;;;5012445;28;20466;-78
2023/02/12 09:35:14;;;;;;;;;;;6.80;99.90;;;;;;4992908;28;19925;-78
2023/02/12 09:37:43;;;;;;;;;;;6.90;99.90;;;;;;5014422;28;19941;-78
2023/02/12 09:40:18;;;;;;;;;;;6.90;99.90;;;;;;4998799;28;20206;-79
2023/02/12 09:42:54;;;;;;;;;;;6.90;99.90;;;;;;5009050;28;19929;-79
2023/02/12 09:45:22;;;;;;;;;;;6.90;99.90;;;;;;5013991;28;19925;-79
2023/02/12 09:48:02;;;;;;;;;;;6.90;99.90;;;;;;4995391;28;19925;-80
2023/02/12 09:50:36;;;;;;;;;;;6.90;99.90;;;;;;4996583;28;19925;-79
2023/02/12 09:53:03;;;;;;;;;;;6.90;99.90;;;;;;5007236;28;19925;-79
2023/02/12 09:55:31;;;;;;;;;;;6.90;99.90;;;;;;5011544;28;19926;-79
2023/02/12 09:58:01;;;;;;;;;;;6.90;99.90;;;;;;4997441;28;20406;-79
2023/02/12 10:00:30;;;;;;;;;;;6.90;99.90;;;;;;4999178;28;19980;-78
2023/02/12 10:03:01;;;;;;;;;;;7.10;99.90;;;;;;4995649;28;19925;-79
2023/02/12 10:05:35;;;;;;;;;;;7.20;99.90;;;;;;4991177;28;19988;-79
2023/02/12 10:08:02;;;;;;;;;;;7.30;99.90;;;;;;5010871;28;20320;-79
2023/02/12 10:10:31;;;;;;;;;;;7.30;99.90;;;;;;4993740;28;20615;-79
2023/02/12 10:13:03;;;;;;;;;;;7.40;99.90;;;;;;4979062;28;19936;-78
2023/02/12 10:15:36;;;;;;;;;;;7.50;99.90;;;;;;5010491;28;19957;-78
2023/02/12 10:18:12;;;;;;;;;;;7.50;99.90;;;;;;4994035;28;19987;-79
2023/02/12 10:20:54;;;;;;;;;;;7.70;99.90;;;;;;5011217;28;19929;-78
2023/02/12 10:23:41;;;;;;;;;;;7.90;99.90;;;;;;4993555;28;19925;-79
2023/02/12 10:26:11;;;;;;;;;;;7.80;99.90;;;;;;5005533;28;20306;-79
2023/02/12 10:28:39;;;;;;;;;;;7.90;99.90;;;;;;5010948;28;20425;-79
2023/02/12 10:31:10;;;;;;;;;;;7.90;99.90;;;;;;5000099;28;19929;-79
2023/02/12 10:33:42;;;;;;;;;;;7.80;99.90;;;;;;5000346;28;19925;-79
2023/02/12 10:36:17;;;;;;;;;;;7.80;99.90;;;;;;5010162;28;19964;-78
2023/02/12 10:38:47;;;;;;;;;;;7.90;99.90;;;;;;4997781;28;19932;-78
2023/02/12 10:41:14;;;;;;;;;;;8.00;99.90;;;;;;5006355;28;20387;-78
2023/02/12 10:43:41;;;;;;;;;;;8.00;99.90;;;;;;4997856;28;19929;-78
2023/02/12 10:46:15;;;;;;;;;;;8.00;99.90;;;;;;4994705;28;19937;-77
2023/02/12 10:48:48;;;;;;;;;;;8.10;99.90;;;;;;4998231;28;20401;-77
2023/02/12 10:51:24;;;;;;;;;;;8.00;99.90;;;;;;5007279;28;19932;-78
2023/02/12 10:53:51;;;;;;;;;;;8.00;99.90;;;;;;5010530;28;19930;-77
2023/02/12 10:56:18;;;;;;;;;;;7.90;99.90;;;;;;4994254;28;20028;-78
2023/02/12 10:58:48;;;;;;;;;;;7.80;99.90;;;;;;4995781;28;19925;-78
2023/02/12 11:01:20;;;;;;;;;;;7.80;99.90;;;;;;4991738;28;19959;-77
2023/02/12 11:03:47;;;;;;;;;;;7.90;99.90;;;;;;5000005;28;19929;-78
2023/02/12 11:06:16;;;;;;;;;;;7.90;99.90;;;;;;5005570;28;19929;-77
2023/02/12 11:08:43;;;;;;;;;;;8.00;99.90;;;;;;5001415;28;19925;-78
2023/02/12 11:11:11;;;;;;;;;;;8.10;99.90;;;;;;5004862;28;19929;-77
2023/02/12 11:13:40;;;;;;;;;;;8.10;99.90;;;;;;4999107;28;19935;-77
2023/02/12 11:16:07;;;;;;;;;;;8.00;99.90;;;;;;4994911;28;19930;-77
2023/02/12 11:18:35;;;;;;;;;;;8.00;99.90;;;;;;5010041;28;19980;-78
2023/02/12 11:21:06;;;;;;;;;;;8.00;99.90;;;;;;5003167;28;20301;-76
2023/02/12 11:23:35;;;;;;;;;;;8.00;99.90;;;;;;4993903;28;19925;-77
2023/02/12 11:26:18;;;;;;;;;;;7.90;99.90;;;;;;5009530;28;19929;-78
2023/02/12 11:28:56;;;;;;;;;;;7.90;99.90;;;;;;4989256;28;20389;-77
2023/02/12 11:31:24;;;;;;;;;;;8.00;99.90;;;;;;5010460;28;19925;-76
2023/02/12 11:34:03;;;;;;;;;;;8.00;99.90;;;;;;4996750;28;19926;-76
2023/02/12 11:36:31;;;;;;;;;;;7.80;99.90;;;;;;5010694;28;19976;-76
2023/02/12 11:38:58;;;;;;;;;;;7.80;99.90;;;;;;5012100;28;19925;-77
2023/02/12 11:41:28;;;;;;;;;;;7.70;99.90;;;;;;4992901;28;19932;-76
2023/02/12 11:43:54;;;;;;;;;;;7.80;99.90;;;;;;4976377;28;20330;-77
2023/02/12 11:46:23;;;;;;;;;;;7.90;99.90;;;;;;5000641;28;19936;-76
2023/02/12 11:48:51;;;;;;;;;;;7.90;99.90;;;;;;5006218;28;19930;-77
2023/02/12 11:51:19;;;;;;;;;;;8.00;99.90;;;;;;5001518;28;19969;-76
2023/02/12 11:53:51;;;;;;;;;;;8.00;99.90;;;;;;4997044;28;19936;-76
2023/02/12 11:56:18;;;;;;;;;;;8.00;99.90;;;;;;5008748;28;20367;-77
2023/02/12 11:58:46;;;;;;;;;;;8.00;99.90;;;;;;4996496;28;20033;-77
2023/02/12 12:01:12;;;;;;;;;;;8.10;99.90;;;;;;5009288;28;19932;-77
2023/02/12 12:03:42;;;;;;;;;;;7.90;99.90;;;;;;4992925;28;19929;-78
2023/02/12 12:06:21;;;;;;;;;;;7.80;99.90;;;;;;5005745;28;20588;-76
2023/02/12 12:09:01;;;;;;;;;;;7.90;99.90;;;;;;4992710;28;19929;-77
2023/02/12 12:11:33;;;;;;;;;;;7.90;99.90;;;;;;4992408;28;19929;-77
2023/02/12 12:14:05;;;;;;;;;;;8.10;99.90;;;;;;5001296;28;19936;-77
2023/02/12 12:22:30;;;;;;;;;;;8.30;99.90;;;;;;4991032;28;19960;-77
2023/02/12 12:25:06;;;;;;;;;;;8.30;99.90;;;;;;5001177;28;19926;-76
2023/02/12 12:30:47;;;;;;;;;;;8.20;99.90;;;;;;4990656;28;19929;-77
2023/02/12 12:33:32;;;;;;;;;;;8.30;99.90;;;;;;4990150;28;19925;-75
2023/02/12 12:35:59;;;;;;;;;;;8.30;99.90;;;;;;4989563;28;19965;-78
2023/02/12 12:38:31;;;;;;;;;;;8.30;99.90;;;;;;4992192;28;19926;-77
2023/02/12 12:41:09;;;;;;;;;;;8.30;99.90;;;;;;5002699;28;19929;-76
2023/02/12 12:43:42;;;;;;;;;;;8.40;99.90;;;;;;4990274;28;19929;-77
2023/02/12 12:46:20;;;;;;;;;;;8.50;99.90;;;;;;5001224;28;19926;-76
2023/02/12 12:49:06;;;;;;;;;;;8.50;99.90;;;;;;5005952;28;20016;-78
2023/02/12 12:51:46;;;;;;;;;;;8.50;99.90;;;;;;5002178;28;19926;-77
2023/02/12 12:54:16;;;;;;;;;;;8.50;99.90;;;;;;4994874;28;19961;-77
2023/02/12 12:56:57;;;;;;;;;;;8.50;99.90;;;;;;5004274;28;19926;-76
2023/02/12 12:59:30;;;;;;;;;;;8.40;99.90;;;;;;5014194;28;19953;-76
2023/02/12 13:02:00;;;;;;;;;;;8.40;99.90;;;;;;5007678;28;19952;-78
2023/02/12 13:04:35;;;;;;;;;;;8.30;99.90;;;;;;5009987;28;20036;-76
2023/02/12 13:07:08;;;;;;;;;;;8.30;99.90;;;;;;4995023;28;19983;-78
2023/02/12 13:09:39;;;;;;;;;;;8.30;99.90;;;;;;5000527;28;19933;-77
2023/02/12 13:12:09;;;;;;;;;;;8.30;99.90;;;;;;4995778;28;20016;-77
2023/02/12 13:14:54;;;;;;;;;;;8.30;99.90;;;;;;4995198;28;20661;-77
2023/02/12 13:17:24;;;;;;;;;;;8.30;99.90;;;;;;4994258;28;19961;-77
2023/02/12 13:19:57;;;;;;;;;;;8.20;99.90;;;;;;5013721;28;20206;-77
2023/02/12 13:22:44;;;;;;;;;;;8.30;99.90;;;;;;4988876;28;19962;-77
2023/02/12 13:25:30;;;;;;;;;;;8.20;99.90;;;;;;4978368;28;19925;-77
2023/02/12 13:27:58;;;;;;;;;;;8.40;99.90;;;;;;4997299;28;20405;-77
2023/02/12 13:30:51;;;;;;;;;;;8.40;99.90;;;;;;5006103;28;20012;-77
2023/02/12 13:33:27;;;;;;;;;;;8.50;99.90;;;;;;5004411;28;19956;-77
2023/02/12 13:35:58;;;;;;;;;;;8.50;99.90;;;;;;4992221;28;19930;-77
2023/02/12 13:38:27;;;;;;;;;;;8.50;99.90;;;;;;5010296;28;20347;-77
2023/02/12 13:40:57;;;;;;;;;;;8.60;99.90;;;;;;4996220;28;20549;-77
2023/02/12 13:43:42;;;;;;;;;;;8.60;99.90;;;;;;4993496;28;19932;-77
2023/02/12 13:46:27;;;;;;;;;;;8.60;99.90;;;;;;4998096;28;20385;-77
2023/02/12 13:49:09;;;;;;;;;;;8.70;99.90;;;;;;4995094;28;20450;-77
2023/02/12 13:51:47;;;;;;;;;;;8.70;99.90;;;;;;5001386;28;19932;-77
2023/02/12 13:54:23;;;;;;;;;;;8.80;99.90;;;;;;4994706;28;19930;-77
2023/02/12 13:56:51;;;;;;;;;;;8.80;99.90;;;;;;4982289;28;19960;-77
2023/02/12 13:59:30;;;;;;;;;;;8.70;99.90;;;;;;5009465;28;20353;-77
2023/02/12 14:01:58;;;;;;;;;;;8.70;99.90;;;;;;4995977;28;20083;-77
2023/02/12 14:04:24;;;;;;;;;;;8.50;99.90;;;;;;5006031;28;20154;-77
2023/02/12 14:06:52;;;;;;;;;;;8.40;99.90;;;;;;4979662;28;19930;-77
2023/02/12 14:09:20;;;;;;;;;;;8.30;99.90;;;;;;4994380;28;19934;-77
2023/02/12 14:11:49;;;;;;;;;;;8.30;99.90;;;;;;4993411;28;20041;-77
2023/02/12 14:14:24;;;;;;;;;;;8.30;99.90;;;;;;4995043;28;19944;-77
2023/02/12 14:16:50;;;;;;;;;;;8.30;99.90;;;;;;5012478;28;19932;-77
2023/02/12 14:19:36;;;;;;;;;;;8.20;99.90;;;;;;4993506;28;20013;-77
2023/02/12 14:22:32;;;;;;;;;;;8.20;99.90;;;;;;5004823;28;19925;-77
2023/02/12 14:25:14;;;;;;;;;;;8.20;99.90;;;;;;4935282;28;19961;-78
2023/02/12 14:27:43;;;;;;;;;;;8.20;99.90;;;;;;4999580;28;19933;-77
2023/02/12 14:30:10;;;;;;;;;;;8.30;99.90;;;;;;5006840;28;20028;-78
2023/02/12 14:32:49;;;;;;;;;;;8.20;99.90;;;;;;4994305;28;19931;-77
2023/02/12 14:35:25;;;;;;;;;;;8.20;99.90;;;;;;5007619;28;19965;-77
2023/02/12 14:37:56;;;;;;;;;;;8.30;99.90;;;;;;5004899;28;20257;-77
2023/02/12 14:40:30;;;;;;;;;;;8.20;99.90;;;;;;4992066;28;20024;-77
2023/02/12 14:42:57;;;;;;;;;;;8.30;99.90;;;;;;4997600;28;19931;-77
2023/02/12 14:45:31;;;;;;;;;;;8.30;99.90;;;;;;4992856;28;19933;-77
2023/02/12 14:47:58;;;;;;;;;;;8.30;99.90;;;;;;5014112;28;20120;-77
2023/02/12 14:50:27;;;;;;;;;;;8.20;99.90;;;;;;5006081;28;19961;-77
2023/02/12 14:52:58;;;;;;;;;;;8.30;99.90;;;;;;5012666;28;19937;-77
2023/02/12 14:55:26;;;;;;;;;;;8.40;99.90;;;;;;5007210;28;19934;-78
2023/02/12 14:57:58;;;;;;;;;;;8.40;99.90;;;;;;4997727;28;19925;-78
2023/02/12 15:00:30;;;;;;;;;;;8.30;99.90;;;;;;4994849;28;19949;-77